sensor_id;sensor_type;location;lat;lon;timestamp;temperature;humidity
32201;DHT22;18701;45.588;5.288;2024-01-11T00:02:13;1.70;99.90
32201;DHT22;18701;45.588;5.288;2024-01-11T00:04:40;1.80;99.90
32201;DHT22;18701;45.588;5.288;2024-01-11T00:07:06;1.80;99.90
32201;DHT22;18701;45.588;5.288;2024-01-11T00:09:31;1.70;99.90
32201;DHT22;18701;45.588;5.288;2024-01-11T00:11:57;1.80;99.90
32201;DHT22;18701;45.588;5.288;2024-01-11T00:14:22;1.80;99.90
32201;DHT22;18701;45.588;5.288;2024-01-11T00:16:48;1.70;99.90
32201;DHT22;18701;45.588;5.288;2024-01-11T00:19:14;1.70;99.90
32201;DHT22;18701;45.588;5.288;2024-01-11T00:21:39;1.70;99.90
32201;DHT22;18701;45.588;5.288;2024-01-11T00:24:05;1.70;99.90
32201;DHT22;18701;45.588;5.288;2024-01-11T00:26:30;1.80;99.90
32201;DHT22;18701;45.588;5.288;2024-01-11T00:28:56;1.70;99.90
32201;DHT22;18701;45.588;5.288;2024-01-11T00:31:21;1.80;99.90
32201;DHT22;18701;45.588;5.288;2024-01-11T00:33:47;1.80;99.90
32201;DHT22;18701;45.588;5.288;2024-01-11T00:36:18;1.70;99.90
32201;DHT22;18701;45.588;5.288;2024-01-11T00:38:44;1.70;99.90
32201;DHT22;18701;45.588;5.288;2024-01-11T00:41:10;1.80;99.90
32201;DHT22;18701;45.588;5.288;2024-01-11T00:43:35;1.80;99.90
32201;DHT22;18701;45.588;5.288;2024-01-11T00:46:01;1.80;99.90
32201;DHT22;18701;45.588;5.288;2024-01-11T00:48:26;1.80;99.90
32201;DHT22;18701;45.588;5.288;2024-01-11T00:50:52;1.80;99.90
32201;DHT22;18701;45.588;5.288;2024-01-11T00:53:17;1.90;99.90
32201;DHT22;18701;45.588;5.288;2024-01-11T00:55:43;1.80;99.90
32201;DHT22;18701;45.588;5.288;2024-01-11T00:58:09;1.80;99.90
32201;DHT22;18701;45.588;5.288;2024-01-11T01:00:34;1.70;99.90
32201;DHT22;18701;45.588;5.288;2024-01-11T01:03:00;1.80;99.90
32201;DHT22;18701;45.588;5.288;2024-01-11T01:05:25;1.70;99.90
32201;DHT22;18701;45.588;5.288;2024-01-11T01:07:51;1.70;99.90
32201;DHT22;18701;45.588;5.288;2024-01-11T01:10:16;1.70;99.90
32201;DHT22;18701;45.588;5.288;2024-01-11T01:12:42;1.70;99.90
32201;DHT22;18701;45.588;5.288;2024-01-11T01:15:08;1.70;99.90
32201;DHT22;18701;45.588;5.288;2024-01-11T01:17:33;1.60;99.90
32201;DHT22;18701;45.588;5.288;2024-01-11T01:19:59;1.70;99.90
32201;DHT22;18701;45.588;5.288;2024-01-11T01:22:24;1.70;99.90
32201;DHT22;18701;45.588;5.288;2024-01-11T01:24:50;1.60;99.90
32201;DHT22;18701;45.588;5.288;2024-01-11T01:27:16;1.70;99.90
32201;DHT22;18701;45.588;5.288;2024-01-11T01:29:42;1.80;99.90
32201;DHT22;18701;45.588;5.288;2024-01-11T01:32:07;1.80;99.90
32201;DHT22;18701;45.588;5.288;2024-01-11T01:34:33;1.80;99.90
32201;DHT22;18701;45.588;5.288;2024-01-11T01:36:59;1.80;99.90
32201;DHT22;18701;45.588;5.288;2024-01-11T01:39:24;1.70;99.90
32201;DHT22;18701;45.588;5.288;2024-01-11T01:41:50;1.80;99.90
32201;DHT22;18701;45.588;5.288;2024-01-11T01:44:18;1.80;99.90
32201;DHT22;18701;45.588;5.288;2024-01-11T01:46:44;1.80;99.90
32201;DHT22;18701;45.588;5.288;2024-01-11T01:49:10;1.70;99.90
32201;DHT22;18701;45.588;5.288;2024-01-11T01:51:37;1.70;99.90
32201;DHT22;18701;45.588;5.288;2024-01-11T01:54:03;1.80;99.90
32201;DHT22;18701;45.588;5.288;2024-01-11T01:56:29;1.80;99.90
32201;DHT22;18701;45.588;5.288;2024-01-11T01:58:55;1.80;99.90
32201;DHT22;18701;45.588;5.288;2024-01-11T02:01:22;1.70;99.90
32201;DHT22;18701;45.588;5.288;2024-01-11T02:03:50;1.80;99.90
32201;DHT22;18701;45.588;5.288;2024-01-11T02:06:18;1.90;99.90
32201;DHT22;18701;45.588;5.288;2024-01-11T02:08:46;1.70;99.90
32201;DHT22;18701;45.588;5.288;2024-01-11T02:11:15;1.70;99.90
32201;DHT22;18701;45.588;5.288;2024-01-11T02:13:41;1.70;99.90
32201;DHT22;18701;45.588;5.288;2024-01-11T02:16:07;1.70;99.90
32201;DHT22;18701;45.588;5.288;2024-01-11T02:18:33;1.60;99.90
32201;DHT22;18701;45.588;5.288;2024-01-11T02:20:58;1.70;99.90
32201;DHT22;18701;45.588;5.288;2024-01-11T02:23:24;1.70;99.90
32201;DHT22;18701;45.588;5.288;2024-01-11T02:25:51;1.60;99.90
32201;DHT22;18701;45.588;5.288;2024-01-11T02:28:17;1.60;99.90
32201;DHT22;18701;45.588;5.288;2024-01-11T02:30:45;1.60;99.90
32201;DHT22;18701;45.588;5.288;2024-01-11T02:33:11;1.50;99.90
32201;DHT22;18701;45.588;5.288;2024-01-11T02:35:41;1.60;99.90
32201;DHT22;18701;45.588;5.288;2024-01-11T02:38:08;1.60;99.90
32201;DHT22;18701;45.588;5.288;2024-01-11T02:40:34;1.50;99.90
32201;DHT22;18701;45.588;5.288;2024-01-11T02:43:10;1.60;99.90
32201;DHT22;18701;45.588;5.288;2024-01-11T02:45:36;1.50;99.90
32201;DHT22;18701;45.588;5.288;2024-01-11T02:48:02;1.60;99.90
32201;DHT22;18701;45.588;5.288;2024-01-11T02:50:27;1.60;99.90
32201;DHT22;18701;45.588;5.288;2024-01-11T02:52:53;1.60;99.90
32201;DHT22;18701;45.588;5.288;2024-01-11T02:55:18;1.70;99.90
32201;DHT22;18701;45.588;5.288;2024-01-11T02:57:44;1.80;99.90
32201;DHT22;18701;45.588;5.288;2024-01-11T03:00:10;1.70;99.90
32201;DHT22;18701;45.588;5.288;2024-01-11T03:02:37;1.80;99.90
32201;DHT22;18701;45.588;5.288;2024-01-11T03:05:03;1.80;99.90
32201;DHT22;18701;45.588;5.288;2024-01-11T03:07:29;1.80;99.90
32201;DHT22;18701;45.588;5.288;2024-01-11T03:09:56;1.80;99.90
32201;DHT22;18701;45.588;5.288;2024-01-11T03:12:21;1.60;99.90
32201;DHT22;18701;45.588;5.288;2024-01-11T03:14:50;1.60;99.90
32201;DHT22;18701;45.588;5.288;2024-01-11T03:17:15;1.70;99.90
32201;DHT22;18701;45.588;5.288;2024-01-11T03:19:41;1.70;99.90
32201;DHT22;18701;45.588;5.288;2024-01-11T03:22:07;1.80;99.90
32201;DHT22;18701;45.588;5.288;2024-01-11T03:24:33;1.80;99.90
32201;DHT22;18701;45.588;5.288;2024-01-11T03:27:02;1.80;99.90
32201;DHT22;18701;45.588;5.288;2024-01-11T03:29:28;1.70;99.90
32201;DHT22;18701;45.588;5.288;2024-01-11T03:31:53;1.60;99.90
32201;DHT22;18701;45.588;5.288;2024-01-11T03:34:19;1.60;99.90
32201;DHT22;18701;45.588;5.288;2024-01-11T03:36:45;1.70;99.90
32201;DHT22;18701;45.588;5.288;2024-01-11T03:39:10;1.80;99.90
32201;DHT22;18701;45.588;5.288;2024-01-11T03:41:36;1.80;99.90
32201;DHT22;18701;45.588;5.288;2024-01-11T03:44:02;1.90;99.90
32201;DHT22;18701;45.588;5.288;2024-01-11T03:46:27;1.80;99.90
32201;DHT22;18701;45.588;5.288;2024-01-11T03:48:53;1.80;99.90
32201;DHT22;18701;45.588;5.288;2024-01-11T03:51:18;1.80;99.90
32201;DHT22;18701;45.588;5.288;2024-01-11T03:53:44;1.80;99.90
32201;DHT22;18701;45.588;5.288;2024-01-11T03:56:09;1.90;99.90
32201;DHT22;18701;45.588;5.288;2024-01-11T03:58:36;1.80;99.90
32201;DHT22;18701;45.588;5.288;2024-01-11T04:01:04;1.70;99.90
32201;DHT22;18701;45.588;5.288;2024-01-11T04:03:30;1.80;99.90
32201;DHT22;18701;45.588;5.288;2024-01-11T04:05:55;1.80;99.90
32201;DHT22;18701;45.588;5.288;2024-01-11T04:08:21;1.80;99.90
32201;DHT22;18701;45.588;5.288;2024-01-11T04:10:50;1.90;99.90
32201;DHT22;18701;45.588;5.288;2024-01-11T04:13:15;1.90;99.90
32201;DHT22;18701;45.588;5.288;2024-01-11T04:15:41;1.80;99.90
32201;DHT22;18701;45.588;5.288;2024-01-11T04:18:07;1.80;99.90
32201;DHT22;18701;45.588;5.288;2024-01-11T04:20:32;1.80;99.90
32201;DHT22;18701;45.588;5.288;2024-01-11T04:22:58;1.80;99.90
32201;DHT22;18701;45.588;5.288;2024-01-11T04:25:23;1.90;99.90
32201;DHT22;18701;45.588;5.288;2024-01-11T04:27:49;1.90;99.90
32201;DHT22;18701;45.588;5.288;2024-01-11T04:30:14;1.90;99.90
32201;DHT22;18701;45.588;5.288;2024-01-11T04:32:40;1.90;99.90
32201;DHT22;18701;45.588;5.288;2024-01-11T04:35:06;2.00;99.90
32201;DHT22;18701;45.588;5.288;2024-01-11T04:37:32;1.90;99.90
32201;DHT22;18701;45.588;5.288;2024-01-11T04:39:57;1.90;99.90
32201;DHT22;18701;45.588;5.288;2024-01-11T04:42:27;2.00;99.90
32201;DHT22;18701;45.588;5.288;2024-01-11T04:44:52;1.90;99.90
32201;DHT22;18701;45.588;5.288;2024-01-11T04:47:18;1.90;99.90
32201;DHT22;18701;45.588;5.288;2024-01-11T04:49:43;2.00;99.90
32201;DHT22;18701;45.588;5.288;2024-01-11T04:52:09;1.90;99.90
32201;DHT22;18701;45.588;5.288;2024-01-11T04:54:34;2.00;99.90
32201;DHT22;18701;45.588;5.288;2024-01-11T04:57:00;1.90;99.90
32201;DHT22;18701;45.588;5.288;2024-01-11T04:59:26;2.00;99.90
32201;DHT22;18701;45.588;5.288;2024-01-11T05:01:51;1.90;99.90
32201;DHT22;18701;45.588;5.288;2024-01-11T05:04:19;1.90;99.90
32201;DHT22;18701;45.588;5.288;2024-01-11T05:06:45;2.00;99.90
32201;DHT22;18701;45.588;5.288;2024-01-11T05:09:10;1.90;99.90
32201;DHT22;18701;45.588;5.288;2024-01-11T05:11:36;1.80;99.90
32201;DHT22;18701;45.588;5.288;2024-01-11T05:14:02;1.80;99.90
32201;DHT22;18701;45.588;5.288;2024-01-11T05:16:28;1.90;99.90
32201;DHT22;18701;45.588;5.288;2024-01-11T05:18:56;1.80;99.90
32201;DHT22;18701;45.588;5.288;2024-01-11T05:21:22;1.90;99.90
32201;DHT22;18701;45.588;5.288;2024-01-11T05:23:48;1.90;99.90
32201;DHT22;18701;45.588;5.288;2024-01-11T05:26:15;1.90;99.90
32201;DHT22;18701;45.588;5.288;2024-01-11T05:28:41;1.80;99.90
32201;DHT22;18701;45.588;5.288;2024-01-11T05:31:11;1.80;99.90
32201;DHT22;18701;45.588;5.288;2024-01-11T05:33:38;1.90;99.90
32201;DHT22;18701;45.588;5.288;2024-01-11T05:36:04;1.80;99.90
32201;DHT22;18701;45.588;5.288;2024-01-11T05:38:30;1.90;99.90
32201;DHT22;18701;45.588;5.288;2024-01-11T05:40:56;1.80;99.90
32201;DHT22;18701;45.588;5.288;2024-01-11T05:43:22;1.80;99.90
32201;DHT22;18701;45.588;5.288;2024-01-11T05:45:49;1.70;99.90
32201;DHT22;18701;45.588;5.288;2024-01-11T05:48:15;1.70;99.90
32201;DHT22;18701;45.588;5.288;2024-01-11T05:50:41;1.70;99.90
32201;DHT22;18701;45.588;5.288;2024-01-11T05:53:07;1.80;99.90
32201;DHT22;18701;45.588;5.288;2024-01-11T05:55:32;1.80;99.90
32201;DHT22;18701;45.588;5.288;2024-01-11T05:57:58;1.80;99.90
32201;DHT22;18701;45.588;5.288;2024-01-11T06:00:23;1.80;99.90
32201;DHT22;18701;45.588;5.288;2024-01-11T06:02:49;1.90;99.90
32201;DHT22;18701;45.588;5.288;2024-01-11T06:05:15;2.00;99.90
32201;DHT22;18701;45.588;5.288;2024-01-11T06:07:41;2.00;99.90
32201;DHT22;18701;45.588;5.288;2024-01-11T06:10:07;1.90;99.90
32201;DHT22;18701;45.588;5.288;2024-01-11T06:12:34;1.90;99.90
32201;DHT22;18701;45.588;5.288;2024-01-11T06:15:01;1.90;99.90
32201;DHT22;18701;45.588;5.288;2024-01-11T06:17:26;1.90;99.90
32201;DHT22;18701;45.588;5.288;2024-01-11T06:19:52;2.00;99.90
32201;DHT22;18701;45.588;5.288;2024-01-11T06:22:18;1.90;99.90
32201;DHT22;18701;45.588;5.288;2024-01-11T06:24:44;1.90;99.90
32201;DHT22;18701;45.588;5.288;2024-01-11T06:27:09;2.00;99.90
32201;DHT22;18701;45.588;5.288;2024-01-11T06:29:35;2.00;99.90
32201;DHT22;18701;45.588;5.288;2024-01-11T06:32:01;1.90;99.90
32201;DHT22;18701;45.588;5.288;2024-01-11T06:34:26;2.00;99.90
32201;DHT22;18701;45.588;5.288;2024-01-11T06:36:53;1.80;99.90
32201;DHT22;18701;45.588;5.288;2024-01-11T06:39:18;1.80;99.90
32201;DHT22;18701;45.588;5.288;2024-01-11T06:41:44;1.80;99.90
32201;DHT22;18701;45.588;5.288;2024-01-11T06:44:09;1.80;99.90
32201;DHT22;18701;45.588;5.288;2024-01-11T06:46:35;1.80;99.90
32201;DHT22;18701;45.588;5.288;2024-01-11T06:49:01;1.90;99.90
32201;DHT22;18701;45.588;5.288;2024-01-11T06:51:27;1.90;99.90
32201;DHT22;18701;45.588;5.288;2024-01-11T06:53:53;1.90;99.90
32201;DHT22;18701;45.588;5.288;2024-01-11T06:56:20;1.90;99.90
32201;DHT22;18701;45.588;5.288;2024-01-11T06:58:48;1.90;99.90
32201;DHT22;18701;45.588;5.288;2024-01-11T07:01:15;1.80;99.90
32201;DHT22;18701;45.588;5.288;2024-01-11T07:03:41;1.90;99.90
32201;DHT22;18701;45.588;5.288;2024-01-11T07:06:06;1.90;99.90
32201;DHT22;18701;45.588;5.288;2024-01-11T07:08:32;1.90;99.90
32201;DHT22;18701;45.588;5.288;2024-01-11T07:11:00;1.90;99.90
32201;DHT22;18701;45.588;5.288;2024-01-11T07:13:26;1.90;99.90
32201;DHT22;18701;45.588;5.288;2024-01-11T07:15:51;1.90;99.90
32201;DHT22;18701;45.588;5.288;2024-01-11T07:18:21;1.90;99.90
32201;DHT22;18701;45.588;5.288;2024-01-11T07:20:46;2.00;99.90
32201;DHT22;18701;45.588;5.288;2024-01-11T07:23:15;1.90;99.90
32201;DHT22;18701;45.588;5.288;2024-01-11T07:25:41;2.00;99.90
32201;DHT22;18701;45.588;5.288;2024-01-11T07:28:07;1.80;99.90
32201;DHT22;18701;45.588;5.288;2024-01-11T07:30:32;1.90;99.90
32201;DHT22;18701;45.588;5.288;2024-01-11T07:32:58;1.80;99.90
32201;DHT22;18701;45.588;5.288;2024-01-11T07:35:24;1.90;99.90
32201;DHT22;18701;45.588;5.288;2024-01-11T07:37:50;1.90;99.90
32201;DHT22;18701;45.588;5.288;2024-01-11T07:40:15;1.90;99.90
32201;DHT22;18701;45.588;5.288;2024-01-11T07:42:42;1.90;99.90
32201;DHT22;18701;45.588;5.288;2024-01-11T07:45:09;1.90;99.90
32201;DHT22;18701;45.588;5.288;2024-01-11T07:47:35;1.90;99.90
32201;DHT22;18701;45.588;5.288;2024-01-11T07:50:05;1.90;99.90
32201;DHT22;18701;45.588;5.288;2024-01-11T07:52:38;1.90;99.90
32201;DHT22;18701;45.588;5.288;2024-01-11T07:55:07;2.00;99.90
32201;DHT22;18701;45.588;5.288;2024-01-11T07:57:36;2.00;99.90
32201;DHT22;18701;45.588;5.288;2024-01-11T08:00:04;2.00;99.90
32201;DHT22;18701;45.588;5.288;2024-01-11T08:02:32;2.00;99.90
32201;DHT22;18701;45.588;5.288;2024-01-11T08:04:57;1.90;99.90
32201;DHT22;18701;45.588;5.288;2024-01-11T08:07:25;1.90;99.90
32201;DHT22;18701;45.588;5.288;2024-01-11T08:09:51;1.90;99.90
32201;DHT22;18701;45.588;5.288;2024-01-11T08:12:17;1.90;99.90
32201;DHT22;18701;45.588;5.288;2024-01-11T08:14:42;1.90;99.90
32201;DHT22;18701;45.588;5.288;2024-01-11T08:17:08;1.90;99.90
32201;DHT22;18701;45.588;5.288;2024-01-11T08:19:34;1.90;99.90
32201;DHT22;18701;45.588;5.288;2024-01-11T08:22:00;1.90;99.90
32201;DHT22;18701;45.588;5.288;2024-01-11T08:24:26;1.90;99.90
32201;DHT22;18701;45.588;5.288;2024-01-11T08:26:52;1.90;99.90
32201;DHT22;18701;45.588;5.288;2024-01-11T08:29:18;1.90;99.90
32201;DHT22;18701;45.588;5.288;2024-01-11T08:31:45;1.70;99.90
32201;DHT22;18701;45.588;5.288;2024-01-11T08:34:11;1.70;99.90
32201;DHT22;18701;45.588;5.288;2024-01-11T08:36:37;1.70;99.90
32201;DHT22;18701;45.588;5.288;2024-01-11T08:39:04;1.80;99.90
32201;DHT22;18701;45.588;5.288;2024-01-11T08:41:36;1.60;99.90
32201;DHT22;18701;45.588;5.288;2024-01-11T08:44:03;1.60;99.90
32201;DHT22;18701;45.588;5.288;2024-01-11T08:46:31;1.50;99.90
32201;DHT22;18701;45.588;5.288;2024-01-11T08:48:58;1.50;99.90
32201;DHT22;18701;45.588;5.288;2024-01-11T08:51:24;1.60;99.90
32201;DHT22;18701;45.588;5.288;2024-01-11T08:53:50;1.50;99.90
32201;DHT22;18701;45.588;5.288;2024-01-11T08:56:15;1.30;99.90
32201;DHT22;18701;45.588;5.288;2024-01-11T08:58:44;1.30;99.90
32201;DHT22;18701;45.588;5.288;2024-01-11T09:01:09;1.30;99.90
32201;DHT22;18701;45.588;5.288;2024-01-11T09:03:35;1.50;99.90
32201;DHT22;18701;45.588;5.288;2024-01-11T09:06:04;1.60;99.90
32201;DHT22;18701;45.588;5.288;2024-01-11T09:08:30;1.70;99.90
32201;DHT22;18701;45.588;5.288;2024-01-11T09:10:56;1.70;99.90
32201;DHT22;18701;45.588;5.288;2024-01-11T09:13:23;1.50;99.90
32201;DHT22;18701;45.588;5.288;2024-01-11T09:15:51;1.40;99.90
32201;DHT22;18701;45.588;5.288;2024-01-11T09:18:20;1.60;99.90
32201;DHT22;18701;45.588;5.288;2024-01-11T09:20:46;1.80;99.90
32201;DHT22;18701;45.588;5.288;2024-01-11T09:23:13;1.80;99.90
32201;DHT22;18701;45.588;5.288;2024-01-11T09:25:39;1.80;99.90
32201;DHT22;18701;45.588;5.288;2024-01-11T09:28:05;1.70;99.90
32201;DHT22;18701;45.588;5.288;2024-01-11T09:30:31;1.80;99.90
32201;DHT22;18701;45.588;5.288;2024-01-11T09:32:57;1.80;99.90
32201;DHT22;18701;45.588;5.288;2024-01-11T09:35:23;1.80;99.90
32201;DHT22;18701;45.588;5.288;2024-01-11T09:37:49;1.90;99.90
32201;DHT22;18701;45.588;5.288;2024-01-11T09:40:15;1.90;99.90
32201;DHT22;18701;45.588;5.288;2024-01-11T09:42:42;2.00;99.90
32201;DHT22;18701;45.588;5.288;2024-01-11T09:45:12;2.10;99.90
32201;DHT22;18701;45.588;5.288;2024-01-11T09:47:39;2.00;99.90
32201;DHT22;18701;45.588;5.288;2024-01-11T09:50:06;2.00;99.90
32201;DHT22;18701;45.588;5.288;2024-01-11T09:52:32;2.10;99.90
32201;DHT22;18701;45.588;5.288;2024-01-11T09:55:01;2.10;99.90
32201;DHT22;18701;45.588;5.288;2024-01-11T09:57:31;2.10;99.90
32201;DHT22;18701;45.588;5.288;2024-01-11T09:59:58;2.00;99.90
32201;DHT22;18701;45.588;5.288;2024-01-11T10:02:24;2.00;99.90
32201;DHT22;18701;45.588;5.288;2024-01-11T10:04:54;2.00;99.90
32201;DHT22;18701;45.588;5.288;2024-01-11T10:07:22;2.00;99.90
32201;DHT22;18701;45.588;5.288;2024-01-11T10:09:48;2.20;99.90
32201;DHT22;18701;45.588;5.288;2024-01-11T10:12:13;2.20;99.90
32201;DHT22;18701;45.588;5.288;2024-01-11T10:14:39;2.20;99.90
32201;DHT22;18701;45.588;5.288;2024-01-11T10:17:06;2.20;99.90
32201;DHT22;18701;45.588;5.288;2024-01-11T10:19:31;2.30;99.90
32201;DHT22;18701;45.588;5.288;2024-01-11T10:21:57;2.30;99.90
32201;DHT22;18701;45.588;5.288;2024-01-11T10:24:24;2.40;99.90
32201;DHT22;18701;45.588;5.288;2024-01-11T10:26:58;2.40;99.90
32201;DHT22;18701;45.588;5.288;2024-01-11T10:29:35;2.40;99.90
32201;DHT22;18701;45.588;5.288;2024-01-11T10:32:04;2.40;99.90
32201;DHT22;18701;45.588;5.288;2024-01-11T10:34:30;2.40;99.90
32201;DHT22;18701;45.588;5.288;2024-01-11T10:36:56;2.40;99.90
32201;DHT22;18701;45.588;5.288;2024-01-11T10:39:24;2.40;99.90
32201;DHT22;18701;45.588;5.288;2024-01-11T10:42:06;2.30;99.90
32201;DHT22;18701;45.588;5.288;2024-01-11T10:44:34;2.40;99.90
32201;DHT22;18701;45.588;5.288;2024-01-11T10:47:02;2.40;99.90
32201;DHT22;18701;45.588;5.288;2024-01-11T10:49:30;2.40;99.90
32201;DHT22;18701;45.588;5.288;2024-01-11T10:52:02;2.40;99.90
32201;DHT22;18701;45.588;5.288;2024-01-11T10:54:29;2.50;99.90
32201;DHT22;18701;45.588;5.288;2024-01-11T10:56:58;2.30;99.90
32201;DHT22;18701;45.588;5.288;2024-01-11T10:59:29;2.20;99.90
32201;DHT22;18701;45.588;5.288;2024-01-11T11:01:58;2.30;99.90
32201;DHT22;18701;45.588;5.288;2024-01-11T11:04:26;2.20;99.90
32201;DHT22;18701;45.588;5.288;2024-01-11T11:06:55;2.30;99.90
32201;DHT22;18701;45.588;5.288;2024-01-11T11:09:23;2.30;99.90
32201;DHT22;18701;45.588;5.288;2024-01-11T11:11:50;2.30;99.90
32201;DHT22;18701;45.588;5.288;2024-01-11T11:14:17;2.30;99.90
32201;DHT22;18701;45.588;5.288;2024-01-11T11:16:44;2.20;99.90
32201;DHT22;18701;45.588;5.288;2024-01-11T11:19:10;2.30;99.90
32201;DHT22;18701;45.588;5.288;2024-01-11T11:21:44;2.20;99.90
32201;DHT22;18701;45.588;5.288;2024-01-11T11:24:10;2.20;99.90
32201;DHT22;18701;45.588;5.288;2024-01-11T11:26:36;2.30;99.90
32201;DHT22;18701;45.588;5.288;2024-01-11T11:29:03;2.20;99.90
32201;DHT22;18701;45.588;5.288;2024-01-11T11:31:41;2.20;99.90
32201;DHT22;18701;45.588;5.288;2024-01-11T11:34:07;2.20;99.90
32201;DHT22;18701;45.588;5.288;2024-01-11T11:36:33;2.20;99.90
32201;DHT22;18701;45.588;5.288;2024-01-11T11:39:00;2.20;99.90
32201;DHT22;18701;45.588;5.288;2024-01-11T11:41:27;2.10;99.90
32201;DHT22;18701;45.588;5.288;2024-01-11T11:43:52;2.20;99.90
32201;DHT22;18701;45.588;5.288;2024-01-11T11:46:19;2.20;99.90
32201;DHT22;18701;45.588;5.288;2024-01-11T11:48:51;2.30;99.90
32201;DHT22;18701;45.588;5.288;2024-01-11T11:51:19;2.30;99.90
32201;DHT22;18701;45.588;5.288;2024-01-11T11:53:47;2.30;99.90
32201;DHT22;18701;45.588;5.288;2024-01-11T11:56:14;2.30;99.90
32201;DHT22;18701;45.588;5.288;2024-01-11T11:58:43;2.00;99.90
32201;DHT22;18701;45.588;5.288;2024-01-11T12:01:09;2.10;99.90
32201;DHT22;18701;45.588;5.288;2024-01-11T12:03:40;2.00;99.90
32201;DHT22;18701;45.588;5.288;2024-01-11T12:06:07;2.10;99.90
32201;DHT22;18701;45.588;5.288;2024-01-11T12:08:34;2.10;99.90
32201;DHT22;18701;45.588;5.288;2024-01-11T12:11:03;2.00;99.90
32201;DHT22;18701;45.588;5.288;2024-01-11T12:13:31;2.00;99.90
32201;DHT22;18701;45.588;5.288;2024-01-11T12:15:57;1.90;99.90
32201;DHT22;18701;45.588;5.288;2024-01-11T12:18:23;1.90;99.90
32201;DHT22;18701;45.588;5.288;2024-01-11T12:20:49;1.90;99.90
32201;DHT22;18701;45.588;5.288;2024-01-11T12:23:16;1.90;99.90
32201;DHT22;18701;45.588;5.288;2024-01-11T12:25:41;1.80;99.90
32201;DHT22;18701;45.588;5.288;2024-01-11T12:28:09;1.90;99.90
32201;DHT22;18701;45.588;5.288;2024-01-11T12:30:34;1.90;99.90
32201;DHT22;18701;45.588;5.288;2024-01-11T12:33:01;2.10;99.90
32201;DHT22;18701;45.588;5.288;2024-01-11T12:35:27;2.00;99.90
32201;DHT22;18701;45.588;5.288;2024-01-11T12:37:59;1.90;99.90
32201;DHT22;18701;45.588;5.288;2024-01-11T12:40:25;1.90;99.90
32201;DHT22;18701;45.588;5.288;2024-01-11T12:42:52;1.90;99.90
32201;DHT22;18701;45.588;5.288;2024-01-11T12:45:19;1.90;99.90
32201;DHT22;18701;45.588;5.288;2024-01-11T12:47:45;2.00;99.90
32201;DHT22;18701;45.588;5.288;2024-01-11T12:50:12;2.00;99.90
32201;DHT22;18701;45.588;5.288;2024-01-11T12:52:40;1.80;99.90
32201;DHT22;18701;45.588;5.288;2024-01-11T12:55:08;1.90;99.90
32201;DHT22;18701;45.588;5.288;2024-01-11T12:57:43;1.90;99.90
32201;DHT22;18701;45.588;5.288;2024-01-11T13:00:13;2.00;99.90
32201;DHT22;18701;45.588;5.288;2024-01-11T13:02:39;1.80;99.90
32201;DHT22;18701;45.588;5.288;2024-01-11T13:05:05;1.80;99.90
32201;DHT22;18701;45.588;5.288;2024-01-11T13:07:32;1.80;99.90
32201;DHT22;18701;45.588;5.288;2024-01-11T13:09:59;1.80;99.90
32201;DHT22;18701;45.588;5.288;2024-01-11T13:12:24;1.90;99.90
32201;DHT22;18701;45.588;5.288;2024-01-11T13:14:50;1.90;99.90
32201;DHT22;18701;45.588;5.288;2024-01-11T13:17:21;1.90;99.90
32201;DHT22;18701;45.588;5.288;2024-01-11T13:19:47;2.00;99.90
32201;DHT22;18701;45.588;5.288;2024-01-11T13:22:12;1.90;99.90
32201;DHT22;18701;45.588;5.288;2024-01-11T13:24:38;2.00;99.90
32201;DHT22;18701;45.588;5.288;2024-01-11T13:27:04;2.00;99.90
32201;DHT22;18701;45.588;5.288;2024-01-11T13:29:29;1.80;99.90
32201;DHT22;18701;45.588;5.288;2024-01-11T13:31:55;1.80;99.90
32201;DHT22;18701;45.588;5.288;2024-01-11T13:34:21;1.80;99.90
32201;DHT22;18701;45.588;5.288;2024-01-11T13:36:46;1.80;99.90
32201;DHT22;18701;45.588;5.288;2024-01-11T13:39:12;1.90;99.90
32201;DHT22;18701;45.588;5.288;2024-01-11T13:41:37;1.90;99.90
32201;DHT22;18701;45.588;5.288;2024-01-11T13:44:06;1.90;99.90
32201;DHT22;18701;45.588;5.288;2024-01-11T13:46:32;2.00;99.90
32201;DHT22;18701;45.588;5.288;2024-01-11T13:48:58;2.00;99.90
32201;DHT22;18701;45.588;5.288;2024-01-11T13:51:23;1.90;99.90
32201;DHT22;18701;45.588;5.288;2024-01-11T13:53:49;1.80;99.90
32201;DHT22;18701;45.588;5.288;2024-01-11T13:56:18;1.80;99.90
32201;DHT22;18701;45.588;5.288;2024-01-11T13:58:43;1.90;99.90
32201;DHT22;18701;45.588;5.288;2024-01-11T14:01:10;1.90;99.90
32201;DHT22;18701;45.588;5.288;2024-01-11T14:03:36;1.80;99.90
32201;DHT22;18701;45.588;5.288;2024-01-11T14:06:02;1.90;99.90
32201;DHT22;18701;45.588;5.288;2024-01-11T14:08:28;1.80;99.90
32201;DHT22;18701;45.588;5.288;2024-01-11T14:10:54;1.90;99.90
32201;DHT22;18701;45.588;5.288;2024-01-11T14:13:20;1.90;99.90
32201;DHT22;18701;45.588;5.288;2024-01-11T14:15:47;1.90;99.90
32201;DHT22;18701;45.588;5.288;2024-01-11T14:18:14;1.80;99.90
32201;DHT22;18701;45.588;5.288;2024-01-11T14:20:39;1.90;99.90
32201;DHT22;18701;45.588;5.288;2024-01-11T14:23:05;1.80;99.90
32201;DHT22;18701;45.588;5.288;2024-01-11T14:25:30;1.80;99.90
32201;DHT22;18701;45.588;5.288;2024-01-11T14:27:56;1.80;99.90
32201;DHT22;18701;45.588;5.288;2024-01-11T14:30:22;1.90;99.90
32201;DHT22;18701;45.588;5.288;2024-01-11T14:32:48;1.80;99.90
32201;DHT22;18701;45.588;5.288;2024-01-11T14:35:14;1.80;99.90
32201;DHT22;18701;45.588;5.288;2024-01-11T14:37:40;1.80;99.90
32201;DHT22;18701;45.588;5.288;2024-01-11T14:40:08;1.70;99.90
32201;DHT22;18701;45.588;5.288;2024-01-11T14:42:37;1.70;99.90
32201;DHT22;18701;45.588;5.288;2024-01-11T14:45:03;1.70;99.90
32201;DHT22;18701;45.588;5.288;2024-01-11T14:47:29;1.50;99.90
32201;DHT22;18701;45.588;5.288;2024-01-11T14:49:57;1.60;99.90
32201;DHT22;18701;45.588;5.288;2024-01-11T14:52:22;1.70;99.90
32201;DHT22;18701;45.588;5.288;2024-01-11T14:54:48;1.80;99.90
32201;DHT22;18701;45.588;5.288;2024-01-11T14:57:14;1.70;99.90
32201;DHT22;18701;45.588;5.288;2024-01-11T14:59:40;1.70;99.90
32201;DHT22;18701;45.588;5.288;2024-01-11T15:02:06;1.90;99.90
32201;DHT22;18701;45.588;5.288;2024-01-11T15:04:31;1.80;99.90
32201;DHT22;18701;45.588;5.288;2024-01-11T15:06:57;1.70;99.90
32201;DHT22;18701;45.588;5.288;2024-01-11T15:09:23;1.80;99.90
32201;DHT22;18701;45.588;5.288;2024-01-11T15:11:48;1.80;99.90
32201;DHT22;18701;45.588;5.288;2024-01-11T15:14:17;1.80;99.90
32201;DHT22;18701;45.588;5.288;2024-01-11T15:16:43;1.80;99.90
32201;DHT22;18701;45.588;5.288;2024-01-11T15:19:11;1.80;99.90
32201;DHT22;18701;45.588;5.288;2024-01-11T15:21:38;1.70;99.90
32201;DHT22;18701;45.588;5.288;2024-01-11T15:24:05;1.70;99.90
32201;DHT22;18701;45.588;5.288;2024-01-11T15:26:30;1.70;99.90
32201;DHT22;18701;45.588;5.288;2024-01-11T15:28:56;1.80;99.90
32201;DHT22;18701;45.588;5.288;2024-01-11T15:31:22;1.80;99.90
32201;DHT22;18701;45.588;5.288;2024-01-11T15:33:51;1.90;99.90
32201;DHT22;18701;45.588;5.288;2024-01-11T15:36:17;1.80;99.90
32201;DHT22;18701;45.588;5.288;2024-01-11T15:38:42;1.90;99.90
32201;DHT22;18701;45.588;5.288;2024-01-11T15:41:08;1.90;99.90